Accueil
METAR-TAF:

METAR-TAF

Aéroports :

Aéroport de Béziers-Cap d'Agde

Béziers, France

latitude: 43-19N, longitude: 003-21E, altitude: 17 m

Observation

Le bulletin a été fait il y a 21 minutes, à 02:30 UTC
Vent 2 kt de nord/nord-est
Température 7°C
Humidité 76%
Pression 1023 hPa
Visibilité 10 km ou plus
pas de nuages en-dessous de 1500 mètres et pas de cumulonimbus.

METAR: LFMU 240230Z AUTO 02002KT CAVOK 07/03 Q1023 NOSIG

Heure: 03:51 (02:51 UTC)

Prévision

Le bulletin a été fait il y a 51 minutes, à 02:00 UTC
Prévision valable du 24 à 03 UTC au 25 à 03 UTC
Vent 5 kt de ouest
Visibilité 10 km ou plus
pas de nuages en-dessous de 1500 mètres et pas de cumulonimbus.
Evoluant progressivement
du 24 à 11 UTC au 24 à 13 UTC
Vent 10 kt de sud/sud-est
Evoluant progressivement
du 24 à 18 UTC au 24 à 20 UTC
Vent 8 kt de ouest

TAF: LFMU 240200Z 2403/2503 28005KT CAVOK BECMG 2411/2413 16010KT BECMG 2418/2420 28008KT

Observations et prévisions météorologiques de plus de 4000 aéroports (messages METAR et TAF).

Les stations disponibles sont représentées par des disques jaunes et rouges sur la carte.

Passer la souris dessus pour voir le nom de la station.

Cliquer dessus pour voir les observations et prévisions météorologiques.

Pour changer de carte: cliquez sur les boutons verts avec une croix noire pour zoomer, sur le bouton vert avec un tiret pour effectuer un zoom arrière, ou sur les flèches vertes pour les cartes adjacentes.


METAR-TAF: